Time;durP1;ratioP1;P1;durP2;ratioP2;P2;SDS_P1;SDS_P2;PMS_P1;PMS_P2;Temp;Humidity;BMP_temperature;BMP_pressure;BME280_temperature;BME280_humidity;BME280_pressure;Samples;Min_cycle;Max_cycle;Signal;HPM_P1;HPM_P2
2023/07/07 00:01:02;;;;;;;7.37;6.77;;;;;;;;;;5033656;28;20530;-56
2023/07/07 00:03:30;;;;;;;7.17;6.63;;;;;;;;;;5033680;28;20538;-57
2023/07/07 00:05:56;;;;;;;7.73;7.03;;;;;;;;;;5033533;28;20894;-56
2023/07/07 00:08:24;;;;;;;6.13;5.63;;;;;;;;;;5033473;28;20458;-56
2023/07/07 00:10:51;;;;;;;6.70;6.20;;;;;;;;;;5033382;28;21012;-57
2023/07/07 00:13:20;;;;;;;6.73;6.23;;;;;;;;;;5033510;28;20446;-56
2023/07/07 00:15:46;;;;;;;6.80;6.30;;;;;;;;;;5033473;28;20451;-56
2023/07/07 00:18:14;;;;;;;6.13;5.67;;;;;;;;;;5033784;28;20537;-57
2023/07/07 00:20:41;;;;;;;6.60;6.20;;;;;;;;;;5033379;28;20886;-56
2023/07/07 00:23:08;;;;;;;6.73;6.17;;;;;;;;;;5033101;28;20914;-56
2023/07/07 00:25:35;;;;;;;6.50;6.00;;;;;;;;;;5033405;28;20459;-55
2023/07/07 00:28:02;;;;;;;6.97;6.20;;;;;;;;;;5033123;28;20964;-56
2023/07/07 00:30:30;;;;;;;7.60;6.80;;;;;;;;;;5033473;28;20550;-57
2023/07/07 00:32:57;;;;;;;7.77;7.13;;;;;;;;;;5033130;28;20454;-57
2023/07/07 00:35:24;;;;;;;6.40;5.90;;;;;;;;;;5032980;28;20455;-56
2023/07/07 00:37:51;;;;;;;6.80;6.33;;;;;;;;;;5033007;28;20943;-56
2023/07/07 00:40:19;;;;;;;7.40;6.90;;;;;;;;;;5033081;28;20822;-57
2023/07/07 00:42:46;;;;;;;7.10;6.00;;;;;;;;;;5032759;28;20839;-57
2023/07/07 00:45:15;;;;;;;6.87;6.37;;;;;;;;;;5033033;28;20450;-57
2023/07/07 00:47:45;;;;;;;6.93;6.43;;;;;;;;;;5032942;28;20538;-56
2023/07/07 00:50:13;;;;;;;7.10;6.10;;;;;;;;;;5033108;28;20450;-56
2023/07/07 00:52:43;;;;;;;6.30;5.80;;;;;;;;;;5033172;28;20545;-55
2023/07/07 00:55:11;;;;;;;5.90;5.50;;;;;;;;;;5032820;28;21000;-56
2023/07/07 00:57:38;;;;;;;6.80;6.30;;;;;;;;;;5032798;28;20574;-56
2023/07/07 01:00:06;;;;;;;6.37;5.77;;;;;;;;;;5032912;28;20532;-56
2023/07/07 01:02:33;;;;;;;6.60;6.10;;;;;;;;;;5032647;28;20895;-58
2023/07/07 01:05:04;;;;;;;6.67;6.17;;;;;;;;;;5032958;28;20513;-57
2023/07/07 01:07:36;;;;;;;6.87;6.10;;;;;;;;;;5032967;28;20487;-58
2023/07/07 01:10:03;;;;;;;7.93;5.57;;;;;;;;;;5033168;28;20451;-54
2023/07/07 01:12:30;;;;;;;6.57;5.77;;;;;;;;;;5032708;28;20452;-55
2023/07/07 01:14:57;;;;;;;5.93;5.33;;;;;;;;;;5032881;28;20539;-56
2023/07/07 01:17:29;;;;;;;10.60;6.23;;;;;;;;;;5032906;28;20996;-56
2023/07/07 01:20:14;;;;;;;6.53;6.03;;;;;;;;;;5032822;28;20453;-56
2023/07/07 01:22:56;;;;;;;6.07;5.67;;;;;;;;;;5032673;28;20524;-56
2023/07/07 01:25:29;;;;;;;6.30;5.67;;;;;;;;;;5029640;28;20450;-56
2023/07/07 01:28:11;;;;;;;7.13;6.37;;;;;;;;;;5032815;28;20445;-56
2023/07/07 01:30:42;;;;;;;6.33;5.77;;;;;;;;;;5032925;28;20549;-54
2023/07/07 01:33:10;;;;;;;5.73;5.33;;;;;;;;;;5032688;28;20455;-55
2023/07/07 01:35:37;;;;;;;5.60;4.80;;;;;;;;;;5032419;28;21007;-55
2023/07/07 01:38:06;;;;;;;5.90;5.40;;;;;;;;;;5032410;28;20458;-56
2023/07/07 01:40:36;;;;;;;5.40;5.00;;;;;;;;;;5032657;28;20987;-56
2023/07/07 01:43:07;;;;;;;5.80;5.40;;;;;;;;;;5032787;28;20486;-57
2023/07/07 01:45:37;;;;;;;6.63;6.13;;;;;;;;;;5032522;28;20456;-56
2023/07/07 01:48:11;;;;;;;6.47;5.87;;;;;;;;;;5032466;28;20455;-56
2023/07/07 01:50:39;;;;;;;9.23;5.47;;;;;;;;;;5032422;28;20546;-56
2023/07/07 01:53:08;;;;;;;6.40;5.87;;;;;;;;;;5032543;28;20837;-56
2023/07/07 01:55:36;;;;;;;5.80;5.40;;;;;;;;;;5035315;28;20787;-56
2023/07/07 01:58:04;;;;;;;5.37;4.97;;;;;;;;;;5036124;28;20451;-55
2023/07/07 02:00:32;;;;;;;4.70;4.40;;;;;;;;;;5035919;28;20452;-56
2023/07/07 02:03:00;;;;;;;5.40;5.00;;;;;;;;;;5035713;28;20507;-57
2023/07/07 02:05:29;;;;;;;6.87;5.23;;;;;;;;;;5036019;28;20449;-56
2023/07/07 02:07:55;;;;;;;5.00;4.60;;;;;;;;;;5035900;28;20447;-54
2023/07/07 02:10:22;;;;;;;5.13;4.83;;;;;;;;;;5035639;28;20451;-55
2023/07/07 02:12:49;;;;;;;6.00;5.50;;;;;;;;;;5035737;28;20815;-55
2023/07/07 02:15:16;;;;;;;5.50;5.10;;;;;;;;;;5035510;28;20942;-56
2023/07/07 02:17:43;;;;;;;6.20;5.60;;;;;;;;;;5035504;28;20546;-57
2023/07/07 02:20:11;;;;;;;5.77;5.20;;;;;;;;;;5035728;28;20490;-53
2023/07/07 02:22:39;;;;;;;5.80;5.10;;;;;;;;;;5035547;28;20513;-54
2023/07/07 02:25:07;;;;;;;6.33;5.27;;;;;;;;;;5035516;28;20454;-52
2023/07/07 02:27:33;;;;;;;5.90;5.30;;;;;;;;;;5035475;28;20480;-55
2023/07/07 02:30:00;;;;;;;6.03;5.57;;;;;;;;;;5035362;28;20538;-56
2023/07/07 02:32:27;;;;;;;6.00;5.43;;;;;;;;;;5035549;28;21017;-53
2023/07/07 02:34:55;;;;;;;5.33;4.90;;;;;;;;;;5035473;28;20493;-56
2023/07/07 02:37:23;;;;;;;5.10;4.70;;;;;;;;;;5035309;28;20450;-53
2023/07/07 02:39:51;;;;;;;5.80;5.23;;;;;;;;;;5035229;28;20884;-54
2023/07/07 02:42:18;;;;;;;5.93;4.97;;;;;;;;;;5035059;28;20474;-53
2023/07/07 02:44:45;;;;;;;4.93;4.60;;;;;;;;;;5034957;28;20524;-52
2023/07/07 02:47:12;;;;;;;5.63;5.13;;;;;;;;;;5035230;28;20561;-55
2023/07/07 02:49:39;;;;;;;5.10;4.70;;;;;;;;;;5035386;28;20450;-56
2023/07/07 02:52:07;;;;;;;5.17;4.77;;;;;;;;;;5035050;28;20481;-54
2023/07/07 02:54:34;;;;;;;5.10;4.70;;;;;;;;;;5034980;28;20449;-56
2023/07/07 02:57:03;;;;;;;5.10;4.80;;;;;;;;;;5034864;28;20835;-54
2023/07/07 02:59:29;;;;;;;7.47;5.10;;;;;;;;;;5034812;28;20489;-52
2023/07/07 03:01:56;;;;;;;5.47;4.97;;;;;;;;;;5034595;28;21018;-56
2023/07/07 03:04:24;;;;;;;5.50;5.10;;;;;;;;;;5034949;28;20450;-55
2023/07/07 03:06:51;;;;;;;6.50;5.10;;;;;;;;;;5034703;28;20451;-55
2023/07/07 03:09:18;;;;;;;5.00;4.70;;;;;;;;;;5034665;28;20819;-54
2023/07/07 03:11:45;;;;;;;5.23;4.83;;;;;;;;;;5034479;28;21028;-55
2023/07/07 03:14:15;;;;;;;5.20;4.80;;;;;;;;;;5034703;28;20454;-52
2023/07/07 03:16:47;;;;;;;5.93;4.67;;;;;;;;;;5035007;28;20453;-54
2023/07/07 03:19:14;;;;;;;6.10;5.50;;;;;;;;;;5034412;28;20930;-53
2023/07/07 03:21:40;;;;;;;4.97;4.33;;;;;;;;;;5034291;28;20995;-54
2023/07/07 03:24:08;;;;;;;5.23;4.83;;;;;;;;;;5034235;28;20493;-56
2023/07/07 03:26:35;;;;;;;5.10;4.70;;;;;;;;;;5034347;28;20946;-55
2023/07/07 03:29:02;;;;;;;5.07;4.73;;;;;;;;;;5034482;28;20536;-56
2023/07/07 03:31:31;;;;;;;5.50;5.10;;;;;;;;;;5034243;28;20564;-55
2023/07/07 03:33:59;;;;;;;5.10;4.70;;;;;;;;;;5034232;28;20541;-54
2023/07/07 03:36:28;;;;;;;5.80;5.27;;;;;;;;;;5034145;28;20548;-56
2023/07/07 03:38:55;;;;;;;5.27;4.97;;;;;;;;;;5033980;28;20450;-54
2023/07/07 03:41:23;;;;;;;5.40;5.10;;;;;;;;;;5033926;28;20937;-54
2023/07/07 03:43:51;;;;;;;5.17;4.77;;;;;;;;;;5033989;28;20576;-54
2023/07/07 03:46:18;;;;;;;5.30;4.90;;;;;;;;;;5033935;28;20450;-56
2023/07/07 03:48:47;;;;;;;4.80;4.40;;;;;;;;;;5033915;28;20549;-56
2023/07/07 03:51:15;;;;;;;4.90;4.60;;;;;;;;;;5033821;28;20453;-55
2023/07/07 03:53:42;;;;;;;5.57;5.07;;;;;;;;;;5033752;28;20483;-55
2023/07/07 03:56:09;;;;;;;4.57;4.27;;;;;;;;;;5033768;28;20483;-54
2023/07/07 03:58:37;;;;;;;6.00;5.50;;;;;;;;;;5033781;28;20825;-54
2023/07/07 04:01:05;;;;;;;6.40;5.70;;;;;;;;;;5033689;28;20416;-54
2023/07/07 04:03:33;;;;;;;5.23;4.90;;;;;;;;;;5033489;28;20988;-50
2023/07/07 04:06:01;;;;;;;6.03;5.53;;;;;;;;;;5033422;28;20450;-56
2023/07/07 04:08:28;;;;;;;5.33;5.00;;;;;;;;;;5033659;28;20516;-54
2023/07/07 04:11:00;;;;;;;5.23;4.83;;;;;;;;;;5033597;28;20482;-55
2023/07/07 04:13:27;;;;;;;8.63;5.50;;;;;;;;;;5033674;28;20549;-56
2023/07/07 04:16:00;;;;;;;6.47;5.87;;;;;;;;;;5033433;28;20537;-56
2023/07/07 04:18:27;;;;;;;6.97;6.27;;;;;;;;;;5032801;28;20454;-56
2023/07/07 04:20:55;;;;;;;6.67;5.50;;;;;;;;;;5033308;28;20938;-55
2023/07/07 04:23:23;;;;;;;5.83;5.33;;;;;;;;;;5033110;28;21035;-54
2023/07/07 04:25:51;;;;;;;6.70;6.10;;;;;;;;;;5033315;28;20450;-54
2023/07/07 04:28:18;;;;;;;5.33;4.93;;;;;;;;;;5033151;28;21025;-56
2023/07/07 04:30:45;;;;;;;5.70;5.30;;;;;;;;;;5033093;28;20520;-55
2023/07/07 04:33:12;;;;;;;6.37;5.57;;;;;;;;;;5032879;28;20486;-56
2023/07/07 04:35:39;;;;;;;9.87;6.30;;;;;;;;;;5033168;28;20889;-55
2023/07/07 04:38:06;;;;;;;6.80;6.10;;;;;;;;;;5033113;28;20451;-55
2023/07/07 04:40:34;;;;;;;7.97;5.17;;;;;;;;;;5032936;28;20932;-55
2023/07/07 04:43:01;;;;;;;5.60;5.20;;;;;;;;;;5032839;28;20563;-57
2023/07/07 04:45:28;;;;;;;7.90;7.20;;;;;;;;;;5032784;28;20997;-56
2023/07/07 04:47:55;;;;;;;9.30;6.40;;;;;;;;;;5033180;28;20797;-55
2023/07/07 04:50:22;;;;;;;6.40;5.90;;;;;;;;;;5033004;28;20553;-56
2023/07/07 04:52:48;;;;;;;6.60;6.10;;;;;;;;;;5032955;28;20562;-56
2023/07/07 04:55:16;;;;;;;10.63;6.60;;;;;;;;;;5032622;28;20456;-56
2023/07/07 04:57:44;;;;;;;6.70;6.20;;;;;;;;;;5032904;28;20617;-55
2023/07/07 05:00:12;;;;;;;15.40;7.10;;;;;;;;;;5032678;28;20451;-57
2023/07/07 05:02:39;;;;;;;6.10;5.60;;;;;;;;;;5032890;28;20435;-56
2023/07/07 05:05:07;;;;;;;6.10;5.50;;;;;;;;;;5032841;28;20537;-56
2023/07/07 05:07:34;;;;;;;6.60;5.50;;;;;;;;;;5032743;28;20554;-56
2023/07/07 05:10:00;;;;;;;5.13;4.73;;;;;;;;;;5032745;28;20452;-56
2023/07/07 05:12:27;;;;;;;6.37;5.97;;;;;;;;;;5032488;28;20455;-56
2023/07/07 05:14:55;;;;;;;5.53;5.23;;;;;;;;;;5033064;28;20456;-54
2023/07/07 05:17:22;;;;;;;5.43;5.13;;;;;;;;;;5032814;28;20451;-56
2023/07/07 05:19:49;;;;;;;5.57;5.23;;;;;;;;;;5032603;28;20450;-56
2023/07/07 05:22:16;;;;;;;6.13;5.63;;;;;;;;;;5032593;28;20484;-55
2023/07/07 05:24:43;;;;;;;5.63;4.83;;;;;;;;;;5032436;28;20531;-55
2023/07/07 05:27:10;;;;;;;6.10;5.50;;;;;;;;;;5032401;28;20447;-54
2023/07/07 05:29:37;;;;;;;5.60;5.20;;;;;;;;;;5034430;28;20486;-55
2023/07/07 05:32:06;;;;;;;5.43;5.03;;;;;;;;;;5036545;28;20951;-57
2023/07/07 05:34:33;;;;;;;5.40;5.00;;;;;;;;;;5036449;28;20545;-57
2023/07/07 05:37:00;;;;;;;10.47;5.20;;;;;;;;;;5036034;28;20451;-57
2023/07/07 05:39:27;;;;;;;5.07;4.67;;;;;;;;;;5036205;28;20457;-55
2023/07/07 05:41:53;;;;;;;7.30;5.93;;;;;;;;;;5036078;28;20457;-56
2023/07/07 05:44:20;;;;;;;7.43;4.80;;;;;;;;;;5036194;28;20485;-56
2023/07/07 05:46:47;;;;;;;5.60;5.00;;;;;;;;;;5036074;28;20531;-56
2023/07/07 05:49:15;;;;;;;13.53;6.43;;;;;;;;;;5036126;28;20499;-56
2023/07/07 05:51:42;;;;;;;11.23;4.80;;;;;;;;;;5036054;28;20446;-57
2023/07/07 05:54:09;;;;;;;4.20;3.90;;;;;;;;;;5035830;28;20538;-57
2023/07/07 05:56:37;;;;;;;3.20;3.00;;;;;;;;;;5035700;28;21242;-57
2023/07/07 05:59:03;;;;;;;3.27;2.97;;;;;;;;;;5036023;28;20457;-56
2023/07/07 06:01:30;;;;;;;2.90;2.60;;;;;;;;;;5035848;28;20536;-56
2023/07/07 06:03:57;;;;;;;2.73;2.53;;;;;;;;;;5035513;28;21032;-57
2023/07/07 06:06:25;;;;;;;2.93;2.60;;;;;;;;;;5035902;28;20452;-58
2023/07/07 06:08:52;;;;;;;3.70;2.77;;;;;;;;;;5035700;28;20541;-58
2023/07/07 06:11:19;;;;;;;3.00;2.80;;;;;;;;;;5035773;28;20453;-56
2023/07/07 06:13:46;;;;;;;8.23;3.73;;;;;;;;;;5036041;28;20464;-56
2023/07/07 06:16:13;;;;;;;3.60;2.50;;;;;;;;;;5035623;28;20538;-56
2023/07/07 06:18:40;;;;;;;2.70;2.50;;;;;;;;;;5035547;28;21014;-56
2023/07/07 06:21:08;;;;;;;2.20;2.10;;;;;;;;;;5035440;28;20506;-55
2023/07/07 06:23:36;;;;;;;5.80;2.80;;;;;;;;;;5035331;28;20865;-55
2023/07/07 06:26:03;;;;;;;2.30;2.20;;;;;;;;;;5035383;28;20500;-58
2023/07/07 06:28:30;;;;;;;3.20;2.60;;;;;;;;;;5035218;28;20752;-56
2023/07/07 06:30:57;;;;;;;4.03;2.43;;;;;;;;;;5035429;28;20456;-57
2023/07/07 06:33:24;;;;;;;2.33;2.13;;;;;;;;;;5035392;28;20541;-56
2023/07/07 06:35:51;;;;;;;2.60;2.10;;;;;;;;;;5035153;28;20449;-57
2023/07/07 06:38:18;;;;;;;5.13;2.00;;;;;;;;;;5035006;28;20500;-56
2023/07/07 06:40:48;;;;;;;2.20;2.10;;;;;;;;;;5034780;28;20496;-56
2023/07/07 06:43:17;;;;;;;2.30;2.20;;;;;;;;;;5035060;28;20484;-56
2023/07/07 06:45:45;;;;;;;2.30;1.97;;;;;;;;;;5035047;28;20453;-56
2023/07/07 06:48:11;;;;;;;3.27;2.00;;;;;;;;;;5034980;28;20812;-56
2023/07/07 06:50:40;;;;;;;1.73;1.63;;;;;;;;;;5034768;28;20541;-57
2023/07/07 06:53:07;;;;;;;2.60;2.40;;;;;;;;;;5034477;28;20941;-56
2023/07/07 06:55:34;;;;;;;2.70;1.93;;;;;;;;;;5034746;28;20450;-56
2023/07/07 06:58:02;;;;;;;2.47;1.77;;;;;;;;;;5034791;28;20650;-57
2023/07/07 07:00:31;;;;;;;2.40;2.10;;;;;;;;;;5034705;28;20481;-56
2023/07/07 07:02:57;;;;;;;5.20;2.50;;;;;;;;;;5034577;28;20519;-57
2023/07/07 07:05:25;;;;;;;3.73;1.70;;;;;;;;;;5034767;28;20481;-57
2023/07/07 07:07:52;;;;;;;10.67;8.50;;;;;;;;;;5028875;28;20804;-57
2023/07/07 07:10:18;;;;;;;3.23;3.03;;;;;;;;;;5015711;28;20457;-56
2023/07/07 07:12:47;;;;;;;2.37;2.17;;;;;;;;;;5014622;28;20454;-52
2023/07/07 07:15:15;;;;;;;2.27;2.07;;;;;;;;;;5033363;28;20453;-56
2023/07/07 07:17:42;;;;;;;1.80;1.70;;;;;;;;;;5034282;28;20488;-57
2023/07/07 07:20:11;;;;;;;2.10;2.00;;;;;;;;;;5034500;28;20456;-55
2023/07/07 07:22:38;;;;;;;2.27;1.90;;;;;;;;;;5034388;28;20460;-57
2023/07/07 07:25:06;;;;;;;2.57;2.10;;;;;;;;;;5034038;28;20876;-56
2023/07/07 07:27:33;;;;;;;2.87;2.63;;;;;;;;;;5034617;28;20536;-56
2023/07/07 07:30:00;;;;;;;2.00;1.90;;;;;;;;;;5034061;28;20540;-56
2023/07/07 07:32:28;;;;;;;2.27;2.07;;;;;;;;;;5029011;28;20976;-58
2023/07/07 07:34:55;;;;;;;2.00;1.83;;;;;;;;;;5014603;28;20453;-55
2023/07/07 07:37:22;;;;;;;2.83;2.43;;;;;;;;;;5014193;28;20545;-60
2023/07/07 07:39:48;;;;;;;2.60;2.20;;;;;;;;;;5014240;28;20461;-57
2023/07/07 07:42:15;;;;;;;2.00;1.80;;;;;;;;;;5014212;28;20450;-55
2023/07/07 07:44:42;;;;;;;3.23;2.20;;;;;;;;;;5013934;28;20493;-55
2023/07/07 07:47:10;;;;;;;3.93;1.60;;;;;;;;;;5013756;28;21022;-57
2023/07/07 07:49:38;;;;;;;2.13;1.93;;;;;;;;;;5013965;28;20512;-58
2023/07/07 07:52:06;;;;;;;2.13;1.90;;;;;;;;;;5014959;28;20458;-56
2023/07/07 07:54:33;;;;;;;1.90;1.80;;;;;;;;;;5013971;28;20466;-57
2023/07/07 07:57:00;;;;;;;2.30;2.10;;;;;;;;;;5028969;28;20512;-56
2023/07/07 07:59:27;;;;;;;2.80;2.60;;;;;;;;;;5033515;28;20460;-56
2023/07/07 08:01:53;;;;;;;2.00;1.90;;;;;;;;;;5033630;28;20449;-56
2023/07/07 08:04:20;;;;;;;2.00;1.90;;;;;;;;;;5033587;28;20485;-56
2023/07/07 08:06:53;;;;;;;2.63;2.43;;;;;;;;;;5033351;28;20454;-57
2023/07/07 08:09:20;;;;;;;4.07;2.20;;;;;;;;;;5033395;28;20460;-57
2023/07/07 08:11:54;;;;;;;2.33;2.07;;;;;;;;;;5033117;28;20460;-56
2023/07/07 08:14:22;;;;;;;1.93;1.70;;;;;;;;;;5026438;28;20446;-57
2023/07/07 08:16:51;;;;;;;1.60;1.50;;;;;;;;;;5013460;28;20545;-57
2023/07/07 08:19:18;;;;;;;2.30;2.10;;;;;;;;;;5013384;28;20982;-57
2023/07/07 08:21:45;;;;;;;3.23;1.73;;;;;;;;;;5016083;28;20472;-57
2023/07/07 08:24:13;;;;;;;1.70;1.60;;;;;;;;;;5023619;28;20492;-56
2023/07/07 08:26:40;;;;;;;4.90;2.20;;;;;;;;;;5022573;28;20480;-56
2023/07/07 08:29:09;;;;;;;2.77;1.80;;;;;;;;;;5022019;28;20449;-57
2023/07/07 08:31:36;;;;;;;1.80;1.70;;;;;;;;;;5022134;28;20454;-55
2023/07/07 08:34:03;;;;;;;1.70;1.60;;;;;;;;;;5020805;28;20796;-58
2023/07/07 08:36:30;;;;;;;2.23;1.70;;;;;;;;;;5024695;28;20821;-55
2023/07/07 08:39:01;;;;;;;1.43;1.33;;;;;;;;;;5033006;28;20445;-56
2023/07/07 08:41:29;;;;;;;1.40;1.30;;;;;;;;;;5032890;28;20857;-57
2023/07/07 08:43:56;;;;;;;1.47;1.30;;;;;;;;;;5032955;28;20791;-57
2023/07/07 08:46:27;;;;;;;1.90;1.63;;;;;;;;;;5033159;28;20449;-57
2023/07/07 08:48:59;;;;;;;1.67;1.57;;;;;;;;;;5032907;28;20456;-57
2023/07/07 08:51:28;;;;;;;2.03;1.60;;;;;;;;;;5032641;28;20450;-55
2023/07/07 08:53:59;;;;;;;3.07;2.87;;;;;;;;;;5027846;28;20558;-57
2023/07/07 08:56:29;;;;;;;1.57;1.47;;;;;;;;;;5012851;28;20569;-57
2023/07/07 08:59:02;;;;;;;1.80;1.70;;;;;;;;;;5013156;28;20450;-56
2023/07/07 09:01:35;;;;;;;1.60;1.50;;;;;;;;;;5012990;28;20503;-57
2023/07/07 09:04:09;;;;;;;5.87;2.00;;;;;;;;;;5016548;28;20907;-57
2023/07/07 09:06:41;;;;;;;1.87;1.77;;;;;;;;;;5019527;28;20454;-58
2023/07/07 09:09:13;;;;;;;1.90;1.80;;;;;;;;;;5019502;28;20537;-54
2023/07/07 09:11:44;;;;;;;1.60;1.50;;;;;;;;;;5019600;28;20450;-56
2023/07/07 09:14:13;;;;;;;3.03;1.90;;;;;;;;;;5019489;28;20456;-56
2023/07/07 09:16:42;;;;;;;1.70;1.60;;;;;;;;;;5019099;28;20521;-57
2023/07/07 09:19:12;;;;;;;2.23;1.57;;;;;;;;;;5019409;28;20447;-57
2023/07/07 09:21:41;;;;;;;1.50;1.23;;;;;;;;;;5019444;28;20450;-57
2023/07/07 09:24:12;;;;;;;1.27;1.17;;;;;;;;;;5019190;28;20485;-57
2023/07/07 09:26:39;;;;;;;1.43;1.33;;;;;;;;;;5023015;28;20461;-59
2023/07/07 09:29:21;;;;;;;2.67;1.40;;;;;;;;;;5026810;28;20485;-56
2023/07/07 09:31:50;;;;;;;1.53;1.43;;;;;;;;;;5028015;28;20464;-55
2023/07/07 09:34:16;;;;;;;1.27;1.17;;;;;;;;;;5027860;28;20452;-56
2023/07/07 09:36:48;;;;;;;2.50;1.47;;;;;;;;;;5026878;28;20453;-57
2023/07/07 09:39:25;;;;;;;1.53;1.33;;;;;;;;;;5027869;28;20536;-57
2023/07/07 09:42:01;;;;;;;1.53;1.37;;;;;;;;;;5028502;28;20552;-57
2023/07/07 09:44:34;;;;;;;1.50;1.40;;;;;;;;;;5026866;28;20467;-55
2023/07/07 09:47:08;;;;;;;2.37;1.50;;;;;;;;;;5029204;28;20538;-55
2023/07/07 09:49:40;;;;;;;1.50;1.40;;;;;;;;;;5028477;28;20537;-56
2023/07/07 09:52:14;;;;;;;1.47;1.33;;;;;;;;;;5027814;28;20446;-57
2023/07/07 09:54:41;;;;;;;1.40;1.30;;;;;;;;;;5025064;28;20496;-57
2023/07/07 09:57:13;;;;;;;1.40;1.30;;;;;;;;;;5028916;28;20908;-56
2023/07/07 09:59:42;;;;;;;1.70;1.50;;;;;;;;;;5029293;28;20447;-58
2023/07/07 10:02:14;;;;;;;2.97;1.57;;;;;;;;;;5026265;28;20485;-57
2023/07/07 10:04:43;;;;;;;4.20;3.80;;;;;;;;;;5028695;28;20981;-57
2023/07/07 10:07:11;;;;;;;1.50;1.40;;;;;;;;;;5018527;28;20537;-58
2023/07/07 10:09:37;;;;;;;1.97;1.87;;;;;;;;;;5018475;28;20882;-58
2023/07/07 10:12:05;;;;;;;1.70;1.60;;;;;;;;;;5018397;28;20461;-57
2023/07/07 10:14:32;;;;;;;2.03;1.53;;;;;;;;;;5017223;28;20450;-58
2023/07/07 10:17:03;;;;;;;1.80;1.70;;;;;;;;;;5014904;28;20535;-58
2023/07/07 10:19:34;;;;;;;2.03;1.77;;;;;;;;;;5015496;28;20869;-57
2023/07/07 10:22:01;;;;;;;2.00;1.77;;;;;;;;;;5015611;28;20470;-58
2023/07/07 10:24:29;;;;;;;2.87;1.60;;;;;;;;;;5014899;28;20565;-58
2023/07/07 10:26:57;;;;;;;1.90;1.43;;;;;;;;;;5015186;28;20446;-58
2023/07/07 10:29:26;;;;;;;4.43;1.80;;;;;;;;;;5014808;28;20438;-56
2023/07/07 10:31:53;;;;;;;2.03;1.57;;;;;;;;;;5014772;28;20954;-56
2023/07/07 10:34:25;;;;;;;2.67;1.50;;;;;;;;;;5014953;28;20887;-56
2023/07/07 10:36:55;;;;;;;1.50;1.30;;;;;;;;;;5015394;28;20451;-56
2023/07/07 10:39:23;;;;;;;4.40;1.30;;;;;;;;;;5015406;28;20887;-56
2023/07/07 10:41:50;;;;;;;2.20;1.60;;;;;;;;;;5015201;28;20855;-57
2023/07/07 10:44:17;;;;;;;3.30;1.53;;;;;;;;;;5015364;28;20550;-57
2023/07/07 10:46:44;;;;;;;1.53;1.43;;;;;;;;;;5015275;28;20537;-56
2023/07/07 10:49:13;;;;;;;1.60;1.50;;;;;;;;;;5015291;28;20461;-57
2023/07/07 10:51:43;;;;;;;1.47;1.20;;;;;;;;;;5015051;28;20450;-56
2023/07/07 10:54:18;;;;;;;1.43;1.20;;;;;;;;;;5014585;28;20457;-58
2023/07/07 10:56:46;;;;;;;1.30;1.20;;;;;;;;;;5014713;28;20984;-55
2023/07/07 10:59:32;;;;;;;3.53;1.60;;;;;;;;;;5014526;28;20538;-57
2023/07/07 11:02:12;;;;;;;2.03;1.47;;;;;;;;;;5014752;28;20534;-58
2023/07/07 11:04:53;;;;;;;1.77;1.67;;;;;;;;;;5014167;28;20485;-58
2023/07/07 11:07:25;;;;;;;2.30;1.50;;;;;;;;;;5014999;28;20550;-57
2023/07/07 11:09:59;;;;;;;1.50;1.33;;;;;;;;;;5014826;28;20593;-58
2023/07/07 11:12:29;;;;;;;1.33;1.23;;;;;;;;;;5014789;28;20482;-57
2023/07/07 11:14:59;;;;;;;1.87;1.57;;;;;;;;;;5014673;28;20454;-55
2023/07/07 11:17:33;;;;;;;1.60;1.43;;;;;;;;;;5014494;28;20557;-56
2023/07/07 11:20:08;;;;;;;2.77;1.37;;;;;;;;;;5014531;28;20446;-56
2023/07/07 11:22:43;;;;;;;1.60;1.50;;;;;;;;;;5014710;28;20568;-57
2023/07/07 11:25:19;;;;;;;2.17;1.60;;;;;;;;;;5014681;28;21088;-57
2023/07/07 11:27:55;;;;;;;2.50;1.57;;;;;;;;;;5013338;28;20545;-57
2023/07/07 11:30:25;;;;;;;3.43;1.60;;;;;;;;;;5014371;28;20965;-57
2023/07/07 11:32:56;;;;;;;2.20;2.00;;;;;;;;;;5014496;28;20549;-56
2023/07/07 11:35:34;;;;;;;3.27;1.70;;;;;;;;;;5014412;28;20545;-57
2023/07/07 11:38:11;;;;;;;3.40;1.57;;;;;;;;;;5014305;28;20460;-57
2023/07/07 11:40:46;;;;;;;1.40;1.30;;;;;;;;;;5014517;28;20581;-57
2023/07/07 11:43:22;;;;;;;2.20;2.00;;;;;;;;;;5014275;28;20450;-57
2023/07/07 11:46:00;;;;;;;3.20;1.50;;;;;;;;;;5014154;28;20489;-57
2023/07/07 11:48:35;;;;;;;6.00;1.80;;;;;;;;;;5014094;28;20457;-57
2023/07/07 11:51:11;;;;;;;2.40;1.87;;;;;;;;;;5014220;28;20832;-57
2023/07/07 11:54:02;;;;;;;1.63;1.50;;;;;;;;;;5014371;28;20496;-57
2023/07/07 11:56:37;;;;;;;1.63;1.53;;;;;;;;;;4994494;28;20557;-57
2023/07/07 11:59:09;;;;;;;1.67;1.20;;;;;;;;;;5014054;28;20442;-57
2023/07/07 12:01:39;;;;;;;1.63;1.40;;;;;;;;;;5014328;28;20461;-56
2023/07/07 12:04:09;;;;;;;2.37;1.80;;;;;;;;;;5013974;28;20870;-56
2023/07/07 12:06:37;;;;;;;5.53;1.60;;;;;;;;;;5013782;28;20838;-57
2023/07/07 12:09:06;;;;;;;2.70;1.80;;;;;;;;;;5013751;28;20451;-56
2023/07/07 12:11:37;;;;;;;1.67;1.57;;;;;;;;;;5013552;28;20454;-56
2023/07/07 12:14:08;;;;;;;2.30;1.40;;;;;;;;;;5013800;28;20446;-56
2023/07/07 12:16:36;;;;;;;1.60;1.50;;;;;;;;;;5013436;28;20566;-55
2023/07/07 12:19:10;;;;;;;1.77;1.60;;;;;;;;;;5013570;28;20453;-56
2023/07/07 12:21:38;;;;;;;1.87;1.77;;;;;;;;;;5013855;28;20540;-56
2023/07/07 12:24:10;;;;;;;2.43;1.63;;;;;;;;;;5013723;28;20457;-56
2023/07/07 12:26:42;;;;;;;1.40;1.30;;;;;;;;;;5013733;28;20494;-56
2023/07/07 12:29:10;;;;;;;1.53;1.43;;;;;;;;;;5013391;28;20454;-57
2023/07/07 12:31:37;;;;;;;6.23;1.57;;;;;;;;;;5013492;28;20451;-56
2023/07/07 12:34:18;;;;;;;2.03;1.40;;;;;;;;;;5013344;28;20451;-58
2023/07/07 12:36:46;;;;;;;1.47;1.37;;;;;;;;;;5013566;28;20454;-56
2023/07/07 12:39:13;;;;;;;2.63;1.87;;;;;;;;;;5013226;28;20446;-58
2023/07/07 12:41:42;;;;;;;2.13;1.40;;;;;;;;;;5013167;28;20539;-56
2023/07/07 12:44:12;;;;;;;2.00;1.60;;;;;;;;;;5013308;28;20880;-57
2023/07/07 12:46:39;;;;;;;1.77;1.67;;;;;;;;;;5013070;28;20486;-54
2023/07/07 12:49:08;;;;;;;1.57;1.47;;;;;;;;;;5013433;28;20454;-57
2023/07/07 12:51:38;;;;;;;3.47;1.53;;;;;;;;;;5013296;28;20610;-56
2023/07/07 12:54:05;;;;;;;2.43;1.73;;;;;;;;;;5013245;28;20654;-56
2023/07/07 12:56:33;;;;;;;1.47;1.37;;;;;;;;;;5012893;28;21032;-57
2023/07/07 12:59:02;;;;;;;1.70;1.60;;;;;;;;;;5013042;28;20454;-56
2023/07/07 13:01:34;;;;;;;4.10;1.90;;;;;;;;;;5012834;28;20451;-57
2023/07/07 13:04:12;;;;;;;1.93;1.73;;;;;;;;;;5013113;28;20796;-56
2023/07/07 13:06:41;;;;;;;5.40;1.70;;;;;;;;;;5012981;28;20522;-56
2023/07/07 13:09:19;;;;;;;1.50;1.40;;;;;;;;;;5013057;28;20529;-55
2023/07/07 13:11:47;;;;;;;2.27;1.83;;;;;;;;;;5012829;28;20817;-57
2023/07/07 13:14:31;;;;;;;1.60;1.50;;;;;;;;;;5012968;28;20537;-56
2023/07/07 13:17:01;;;;;;;1.93;1.80;;;;;;;;;;5013056;28;20813;-55
2023/07/07 13:19:28;;;;;;;2.13;1.93;;;;;;;;;;5012927;28;20549;-57
2023/07/07 13:21:57;;;;;;;1.70;1.60;;;;;;;;;;5013033;28;20453;-57
2023/07/07 13:24:26;;;;;;;1.50;1.40;;;;;;;;;;5012685;28;20446;-55
2023/07/07 13:26:56;;;;;;;1.83;1.70;;;;;;;;;;5012886;28;20486;-56
2023/07/07 13:29:25;;;;;;;2.97;2.20;;;;;;;;;;5013061;28;20473;-55
2023/07/07 13:31:52;;;;;;;2.10;2.00;;;;;;;;;;5012873;28;20590;-57
2023/07/07 13:34:20;;;;;;;2.23;2.13;;;;;;;;;;5012479;28;20454;-57
2023/07/07 13:36:47;;;;;;;2.90;1.60;;;;;;;;;;5012565;28;20458;-57
2023/07/07 13:39:17;;;;;;;2.07;1.63;;;;;;;;;;5012898;28;20451;-56
2023/07/07 13:41:44;;;;;;;1.80;1.70;;;;;;;;;;5012890;28;20810;-56
2023/07/07 13:44:16;;;;;;;2.10;2.00;;;;;;;;;;5012770;28;20461;-57
2023/07/07 13:46:44;;;;;;;2.67;1.53;;;;;;;;;;5012594;28;20858;-57
2023/07/07 13:49:13;;;;;;;2.07;1.63;;;;;;;;;;5012554;28;20486;-57
2023/07/07 13:51:43;;;;;;;2.47;1.90;;;;;;;;;;5016084;28;20476;-57
2023/07/07 13:54:12;;;;;;;1.73;1.63;;;;;;;;;;5016321;28;20461;-58
2023/07/07 13:56:40;;;;;;;1.73;1.63;;;;;;;;;;5016031;28;20886;-56
2023/07/07 13:59:14;;;;;;;1.63;1.53;;;;;;;;;;5016154;28;20541;-57
2023/07/07 14:01:41;;;;;;;1.80;1.70;;;;;;;;;;5016153;28;20454;-56
2023/07/07 14:04:23;;;;;;;2.20;2.00;;;;;;;;;;5016061;28;20450;-56
2023/07/07 14:06:51;;;;;;;2.00;1.90;;;;;;;;;;5015882;28;20993;-57
2023/07/07 14:09:21;;;;;;;2.10;1.90;;;;;;;;;;5016152;28;20549;-56
2023/07/07 14:11:51;;;;;;;1.80;1.70;;;;;;;;;;5015965;28;20454;-57
2023/07/07 14:14:19;;;;;;;2.23;2.03;;;;;;;;;;5015847;28;20458;-57
2023/07/07 14:16:47;;;;;;;1.83;1.73;;;;;;;;;;5016123;28;20451;-56
2023/07/07 14:19:18;;;;;;;2.60;2.00;;;;;;;;;;5015955;28;20453;-56
2023/07/07 14:21:47;;;;;;;6.60;1.60;;;;;;;;;;5015843;28;20454;-57
2023/07/07 14:24:16;;;;;;;2.07;1.90;;;;;;;;;;5015767;28;20447;-55
2023/07/07 14:26:44;;;;;;;3.57;1.70;;;;;;;;;;5015535;28;20485;-56
2023/07/07 14:29:17;;;;;;;2.23;1.63;;;;;;;;;;5015870;28;20451;-56
2023/07/07 14:31:44;;;;;;;1.90;1.60;;;;;;;;;;5015619;28;20459;-56
2023/07/07 14:34:13;;;;;;;2.10;1.87;;;;;;;;;;5015566;28;20455;-57
2023/07/07 14:36:43;;;;;;;2.00;1.87;;;;;;;;;;5015570;28;20446;-56
2023/07/07 14:39:22;;;;;;;3.73;2.73;;;;;;;;;;5015377;28;20449;-58
2023/07/07 14:41:51;;;;;;;2.10;1.90;;;;;;;;;;5015632;28;20447;-54
2023/07/07 14:44:39;;;;;;;3.40;3.20;;;;;;;;;;5015376;28;20496;-56
2023/07/07 14:47:08;;;;;;;2.30;2.03;;;;;;;;;;5015103;28;20486;-57
2023/07/07 14:49:35;;;;;;;2.03;1.90;;;;;;;;;;5015179;28;20608;-56
2023/07/07 14:52:03;;;;;;;4.97;4.30;;;;;;;;;;5015139;28;20454;-56
2023/07/07 14:54:31;;;;;;;2.27;2.17;;;;;;;;;;5015393;28;20485;-58